createdAt,value
2018-07-26T00:01:11.423Z,10.93
2018-07-26T00:03:40.045Z,10.23
2018-07-26T00:06:08.752Z,9.77
2018-07-26T00:08:37.374Z,10.87
2018-07-26T00:11:06.053Z,11.20
2018-07-26T00:13:35.493Z,10.93
2018-07-26T00:16:04.172Z,10.43
2018-07-26T00:18:32.794Z,11.30
2018-07-26T00:21:01.476Z,11.37
2018-07-26T00:23:30.129Z,10.60
2018-07-26T00:25:58.739Z,11.17
2018-07-26T00:28:27.399Z,11.70
2018-07-26T00:30:56.915Z,11.63
2018-07-26T00:33:25.566Z,11.43
2018-07-26T00:35:54.188Z,11.70
2018-07-26T00:38:22.814Z,12.83
2018-07-26T00:40:51.422Z,12.57
2018-07-26T00:43:20.108Z,11.80
2018-07-26T00:45:48.746Z,13.07
2018-07-26T00:48:17.435Z,13.43
2018-07-26T00:50:46.126Z,12.37
2018-07-26T00:53:14.816Z,12.67
2018-07-26T00:55:43.436Z,12.87
2018-07-26T00:58:12.044Z,13.10
2018-07-26T01:00:40.665Z,12.27
2018-07-26T01:03:09.315Z,12.30
2018-07-26T01:05:37.939Z,12.10
2018-07-26T01:08:06.607Z,11.90
2018-07-26T01:10:35.474Z,12.47
2018-07-26T01:13:04.168Z,14.20
2018-07-26T01:15:32.802Z,12.40
2018-07-26T01:18:01.467Z,12.77
2018-07-26T01:20:30.164Z,12.27
2018-07-26T01:22:58.854Z,12.43
2018-07-26T01:25:27.495Z,13.53
2018-07-26T01:27:56.423Z,12.60
2018-07-26T01:30:25.526Z,13.73
2018-07-26T01:32:54.503Z,13.03
2018-07-26T01:35:23.148Z,12.73
2018-07-26T01:37:51.781Z,12.30
2018-07-26T01:40:20.411Z,12.70
2018-07-26T01:43:00.229Z,12.07
2018-07-26T01:45:28.897Z,12.33
2018-07-26T01:47:57.566Z,12.13
2018-07-26T01:50:26.191Z,12.37
2018-07-26T01:52:54.854Z,12.60
2018-07-26T01:55:23.896Z,12.10
2018-07-26T01:57:52.499Z,12.63
2018-07-26T02:00:21.155Z,13.13
2018-07-26T02:02:49.777Z,13.43
2018-07-26T02:05:18.455Z,13.23
2018-07-26T02:07:47.147Z,13.30
2018-07-26T02:10:15.896Z,13.87
2018-07-26T02:12:44.562Z,14.17
2018-07-26T02:15:13.283Z,13.73
2018-07-26T02:17:42.010Z,14.50
2018-07-26T02:20:10.709Z,13.97
2018-07-26T02:22:39.522Z,14.37
2018-07-26T02:25:08.446Z,14.37
2018-07-26T02:27:37.088Z,14.23
2018-07-26T02:30:07.612Z,14.73
2018-07-26T02:32:36.538Z,14.70
2018-07-26T02:35:05.598Z,15.23
2018-07-26T02:37:34.222Z,14.43
2018-07-26T02:40:02.819Z,18.97
2018-07-26T02:42:31.475Z,15.87
2018-07-26T02:45:00.441Z,15.57
2018-07-26T02:47:29.089Z,15.90
2018-07-26T02:49:58.048Z,15.87
2018-07-26T02:52:26.711Z,16.67
2018-07-26T02:54:55.340Z,15.43
2018-07-26T02:57:23.947Z,16.60
2018-07-26T02:59:52.594Z,15.47
2018-07-26T03:02:21.234Z,16.07
2018-07-26T03:04:49.865Z,12.93
2018-07-26T03:07:18.874Z,16.03
2018-07-26T03:09:47.515Z,15.93
2018-07-26T03:12:16.173Z,12.77
2018-07-26T03:14:45.539Z,16.27
2018-07-26T03:17:15.472Z,13.03
2018-07-26T03:19:45.034Z,13.30
2018-07-26T03:22:13.809Z,12.47
2018-07-26T03:24:42.480Z,12.67
2018-07-26T03:27:11.167Z,14.57
2018-07-26T03:29:39.920Z,15.30
2018-07-26T03:32:09.110Z,14.63
2018-07-26T03:34:38.108Z,12.97
2018-07-26T03:37:06.827Z,15.47
2018-07-26T03:39:35.551Z,16.43
2018-07-26T03:42:04.213Z,11.53
2018-07-26T03:44:32.875Z,12.23
2018-07-26T03:47:01.649Z,13.97
2018-07-26T03:49:30.349Z,17.77
2018-07-26T03:51:59.584Z,14.97
2018-07-26T03:54:28.171Z,18.47
2018-07-26T03:56:56.917Z,13.47
2018-07-26T03:59:25.683Z,14.43
2018-07-26T04:01:54.645Z,13.10
2018-07-26T04:04:23.550Z,15.37
2018-07-26T04:06:52.203Z,11.97
2018-07-26T04:09:21.137Z,11.23
2018-07-26T04:11:49.799Z,10.70
2018-07-26T04:14:18.444Z,22.07
2018-07-26T04:16:47.095Z,14.40
2018-07-26T04:19:15.782Z,13.17
2018-07-26T04:21:44.422Z,13.47
2018-07-26T04:24:13.153Z,21.93
2018-07-26T04:26:42.116Z,12.10
2018-07-26T04:29:10.814Z,14.97
2018-07-26T04:31:39.487Z,12.97
2018-07-26T04:34:08.164Z,13.20
2018-07-26T04:36:36.837Z,17.67
2018-07-26T04:39:08.499Z,17.23
2018-07-26T04:41:37.733Z,18.47
2018-07-26T04:44:06.378Z,12.13
2018-07-26T04:46:35.051Z,14.63
2018-07-26T04:49:03.671Z,11.37
2018-07-26T04:51:32.575Z,9.93
2018-07-26T04:54:01.280Z,13.73
2018-07-26T04:56:29.933Z,13.13
2018-07-26T04:58:58.847Z,14.33
2018-07-26T05:01:27.474Z,13.27
2018-07-26T05:03:56.678Z,13.30
2018-07-26T05:06:26.542Z,17.23
2018-07-26T05:08:55.259Z,18.83
2018-07-26T05:11:23.924Z,17.77
2018-07-26T05:13:52.587Z,24.97
2018-07-26T05:16:21.229Z,24.23
2018-07-26T05:18:49.884Z,22.43
2018-07-26T05:21:18.574Z,24.77
2018-07-26T05:23:47.259Z,20.63
2018-07-26T05:26:15.964Z,18.07
2018-07-26T05:28:44.571Z,18.47
2018-07-26T05:31:13.342Z,19.67
2018-07-26T05:33:41.982Z,19.37
2018-07-26T05:36:10.779Z,16.23
2018-07-26T05:38:39.460Z,19.23
2018-07-26T05:41:08.214Z,21.87
2018-07-26T05:43:37.540Z,18.70
2018-07-26T05:46:06.261Z,19.85
2018-07-26T05:48:34.970Z,18.07
2018-07-26T05:51:04.175Z,19.95
2018-07-26T05:53:32.831Z,17.25
2018-07-26T05:56:01.487Z,17.42
2018-07-26T05:58:30.159Z,17.30
2018-07-26T06:00:58.835Z,16.90
2018-07-26T06:03:27.506Z,16.93
2018-07-26T06:05:56.479Z,17.15
2018-07-26T06:08:25.148Z,16.12
2018-07-26T06:10:53.856Z,16.73
2018-07-26T06:13:22.532Z,19.12
2018-07-26T06:15:51.191Z,20.43
2018-07-26T06:18:19.783Z,24.70
2018-07-26T06:20:48.512Z,17.10
2018-07-26T06:23:17.471Z,19.20
2018-07-26T06:25:46.115Z,15.75
2018-07-26T06:28:14.835Z,15.53
2018-07-26T06:30:43.556Z,23.47
2018-07-26T06:33:12.196Z,19.27
2018-07-26T06:35:40.833Z,15.03
2018-07-26T06:38:10.499Z,16.02
2018-07-26T06:40:39.194Z,12.25
2018-07-26T06:43:08.118Z,11.18
2018-07-26T06:45:37.228Z,11.75
2018-07-26T06:48:06.884Z,11.68
2018-07-26T06:50:35.578Z,11.90
2018-07-26T06:53:04.699Z,12.37
2018-07-26T06:55:33.817Z,12.07
2018-07-26T06:58:02.507Z,12.88
2018-07-26T07:00:31.234Z,15.63
2018-07-26T07:03:00.232Z,11.90
2018-07-26T07:05:28.975Z,11.85
2018-07-26T07:07:57.859Z,12.53
2018-07-26T07:10:26.497Z,12.85
2018-07-26T07:12:55.331Z,13.35
2018-07-26T07:15:24.220Z,11.48
2018-07-26T07:17:52.921Z,11.25
2018-07-26T07:20:21.591Z,11.53
2018-07-26T07:22:50.337Z,12.53
2018-07-26T07:25:20.077Z,12.07
2018-07-26T07:27:48.893Z,12.93
2018-07-26T07:30:17.899Z,14.47
2018-07-26T07:32:46.567Z,12.23
2018-07-26T07:35:15.243Z,14.18
2018-07-26T07:37:43.972Z,13.78
2018-07-26T07:40:13.288Z,12.60
2018-07-26T07:42:41.973Z,13.48
2018-07-26T07:45:10.637Z,12.75
2018-07-26T07:47:39.662Z,11.60
2018-07-26T07:50:08.343Z,12.63
2018-07-26T07:52:37.070Z,12.70
2018-07-26T07:55:06.220Z,12.90
2018-07-26T07:57:34.867Z,12.53
2018-07-26T08:00:04.623Z,11.78
2018-07-26T08:02:33.653Z,11.18
2018-07-26T08:05:02.348Z,11.63
2018-07-26T08:07:31.005Z,11.28
2018-07-26T08:09:59.697Z,12.75
2018-07-26T08:12:28.442Z,11.00
2018-07-26T08:14:57.060Z,11.20
2018-07-26T08:17:26.017Z,12.78
2018-07-26T08:19:55.156Z,12.75
2018-07-26T08:22:24.120Z,14.83
2018-07-26T08:24:53.536Z,13.05
2018-07-26T08:27:22.958Z,13.35
2018-07-26T08:29:52.306Z,15.43
2018-07-26T08:32:20.979Z,12.98
2018-07-26T08:34:50.056Z,18.10
2018-07-26T08:37:18.675Z,12.85
2018-07-26T08:39:47.334Z,14.40
2018-07-26T08:42:16.691Z,12.15
2018-07-26T08:44:45.369Z,10.98
2018-07-26T08:47:14.134Z,11.68
2018-07-26T08:49:42.832Z,11.15
2018-07-26T08:52:11.908Z,11.73
2018-07-26T08:54:41.058Z,10.75
2018-07-26T08:57:09.963Z,11.63
2018-07-26T08:59:38.856Z,11.97
2018-07-26T09:02:08.008Z,10.78
2018-07-26T09:04:36.958Z,9.98
2018-07-26T09:07:05.854Z,10.90
2018-07-26T09:09:34.797Z,9.03
2018-07-26T09:12:03.452Z,10.43
2018-07-26T09:14:32.455Z,9.83
2018-07-26T09:17:01.332Z,8.60
2018-07-26T09:19:30.281Z,10.05
2018-07-26T09:21:59.667Z,9.33
2018-07-26T09:24:28.344Z,8.95
2018-07-26T09:26:57.019Z,8.40
2018-07-26T09:29:25.730Z,9.48
2018-07-26T09:31:54.344Z,9.30
2018-07-26T09:34:23.072Z,8.53
2018-07-26T09:36:51.853Z,9.00
2018-07-26T09:39:20.484Z,9.53
2018-07-26T09:41:49.193Z,10.25
2018-07-26T09:44:18.584Z,8.93
2018-07-26T09:46:47.243Z,7.67
2018-07-26T09:49:15.872Z,9.35
2018-07-26T09:51:44.921Z,8.03
2018-07-26T09:54:13.631Z,7.87
2018-07-26T09:56:42.276Z,8.90
2018-07-26T09:59:10.881Z,8.23
2018-07-26T10:01:40.935Z,19.55
2018-07-26T10:04:09.628Z,13.00
2018-07-26T10:06:38.393Z,8.60
2018-07-26T10:09:11.326Z,8.70
2018-07-26T10:11:40.047Z,8.55
2018-07-26T10:14:08.750Z,8.38
2018-07-26T10:16:37.742Z,8.10
2018-07-26T10:19:06.516Z,9.90
2018-07-26T10:21:35.147Z,11.80
2018-07-26T10:24:03.806Z,9.78
2018-07-26T10:26:32.458Z,8.18
2018-07-26T10:29:01.627Z,6.60
2018-07-26T10:31:30.315Z,7.55
2018-07-26T10:33:59.041Z,6.70
2018-07-26T10:36:27.768Z,12.80
2018-07-26T10:38:56.400Z,8.48
2018-07-26T10:41:25.327Z,7.90
2018-07-26T10:43:54.075Z,7.45
2018-07-26T10:46:23.624Z,7.62
2018-07-26T10:48:52.755Z,6.92
2018-07-26T10:51:21.647Z,6.95
2018-07-26T10:53:50.672Z,6.75
2018-07-26T10:56:19.615Z,7.30
2018-07-26T10:58:48.273Z,8.93
2018-07-26T11:01:17.179Z,7.90
2018-07-26T11:03:45.828Z,8.08
2018-07-26T11:06:14.510Z,7.92
2018-07-26T11:08:43.665Z,8.08
2018-07-26T11:11:12.739Z,8.43
2018-07-26T11:13:41.668Z,8.98
2018-07-26T11:16:10.402Z,10.23
2018-07-26T11:18:39.329Z,10.90
2018-07-26T11:21:08.852Z,11.20
2018-07-26T11:23:37.540Z,9.68
2018-07-26T11:26:06.664Z,12.07
2018-07-26T11:28:35.322Z,11.68
2018-07-26T11:31:04.045Z,7.40
2018-07-26T11:33:33.020Z,5.62
2018-07-26T11:36:02.286Z,6.53
2018-07-26T11:38:31.456Z,4.78
2018-07-26T11:41:00.045Z,5.72
2018-07-26T11:43:28.966Z,13.30
2018-07-26T11:45:57.657Z,17.77
2018-07-26T11:48:26.327Z,8.10
2018-07-26T11:50:55.358Z,9.28
2018-07-26T11:53:24.027Z,7.92
2018-07-26T11:55:52.947Z,6.75
2018-07-26T11:58:21.691Z,8.38
2018-07-26T12:00:50.366Z,6.33
2018-07-26T12:03:19.001Z,7.22
2018-07-26T12:05:47.589Z,6.80
2018-07-26T12:08:16.544Z,5.42
2018-07-26T12:10:45.135Z,6.65
2018-07-26T12:13:13.770Z,11.45
2018-07-26T12:15:42.358Z,8.20
2018-07-26T12:18:11.086Z,10.60
2018-07-26T12:20:39.762Z,5.90
2018-07-26T12:23:08.557Z,9.50
2018-07-26T12:25:37.452Z,10.72
2018-07-26T12:28:06.116Z,9.28
2018-07-26T12:30:34.757Z,7.35
2018-07-26T12:33:03.662Z,7.33
2018-07-26T12:35:32.359Z,6.45
2018-07-26T12:38:00.999Z,8.90
2018-07-26T12:40:29.599Z,5.28
2018-07-26T12:42:58.201Z,9.55
2018-07-26T12:45:26.870Z,6.08
2018-07-26T12:47:55.862Z,3.77
2018-07-26T12:50:24.454Z,5.70
2018-07-26T12:52:53.126Z,6.42
2018-07-26T12:55:21.772Z,4.95
2018-07-26T12:57:50.426Z,5.78
2018-07-26T13:00:19.084Z,7.47
2018-07-26T13:02:47.925Z,6.53
2018-07-26T13:05:16.615Z,4.55
2018-07-26T13:07:45.251Z,6.08
2018-07-26T13:10:14.001Z,7.08
2018-07-26T13:12:42.647Z,6.80
2018-07-26T13:15:11.352Z,5.33
2018-07-26T13:17:40.304Z,4.92
2018-07-26T13:20:09.431Z,9.03
2018-07-26T13:22:38.122Z,4.62
2018-07-26T13:25:07.013Z,6.50
2018-07-26T13:27:35.713Z,4.90
2018-07-26T13:30:06.143Z,4.95
2018-07-26T13:32:34.789Z,5.58
2018-07-26T13:35:03.435Z,5.55
2018-07-26T13:37:32.115Z,4.95
2018-07-26T13:40:00.844Z,5.45
2018-07-26T13:42:29.507Z,5.00
2018-07-26T13:44:58.151Z,8.70
2018-07-26T13:47:27.231Z,6.80
2018-07-26T13:49:56.306Z,4.85
2018-07-26T13:52:26.123Z,5.08
2018-07-26T13:54:55.367Z,4.40
2018-07-26T13:57:24.260Z,6.60
2018-07-26T13:59:53.321Z,7.05
2018-07-26T14:02:22.951Z,8.50
2018-07-26T14:04:51.754Z,8.08
2018-07-26T14:07:22.556Z,6.58
2018-07-26T14:09:51.396Z,5.25
2018-07-26T14:12:20.078Z,5.83
2018-07-26T14:14:48.686Z,6.23
2018-07-26T14:17:17.307Z,9.03
2018-07-26T14:19:45.954Z,6.20
2018-07-26T14:22:14.584Z,4.40
2018-07-26T14:24:43.300Z,4.87
2018-07-26T14:27:11.985Z,5.40
2018-07-26T14:29:40.958Z,13.20
2018-07-26T14:32:09.644Z,7.33
2018-07-26T14:34:38.588Z,7.13
2018-07-26T14:37:07.234Z,7.07
2018-07-26T14:39:36.180Z,6.03
2018-07-26T14:42:04.899Z,8.83
2018-07-26T14:44:33.605Z,8.10
2018-07-26T14:47:02.243Z,8.20
2018-07-26T14:49:30.902Z,6.07
2018-07-26T14:51:59.583Z,5.67
2018-07-26T14:54:28.241Z,6.40
2018-07-26T14:56:56.906Z,7.62
2018-07-26T14:59:25.562Z,5.43
2018-07-26T15:01:54.730Z,6.53
2018-07-26T15:04:23.620Z,6.43
2018-07-26T15:06:52.339Z,7.37
2018-07-26T15:09:21.326Z,12.70
2018-07-26T15:11:49.984Z,10.37
2018-07-26T15:14:19.000Z,7.07
2018-07-26T15:16:47.979Z,8.03
2018-07-26T15:19:16.903Z,7.67
2018-07-26T15:21:45.538Z,13.00
2018-07-26T15:24:14.204Z,8.97
2018-07-26T15:26:42.843Z,6.50
2018-07-26T15:29:11.497Z,7.37
2018-07-26T15:31:40.162Z,8.57
2018-07-26T15:34:08.863Z,11.83
2018-07-26T15:36:37.535Z,8.33
2018-07-26T15:39:08.307Z,8.20
2018-07-26T15:41:37.086Z,10.97
2018-07-26T15:44:05.847Z,9.73
2018-07-26T15:46:34.510Z,8.60
2018-07-26T15:49:03.123Z,10.40
2018-07-26T15:51:32.582Z,9.07
2018-07-26T15:54:01.230Z,7.67
2018-07-26T15:56:29.895Z,8.60
2018-07-26T15:58:58.645Z,8.10
2018-07-26T16:01:27.273Z,6.53
2018-07-26T16:03:55.940Z,9.03
2018-07-26T16:06:24.788Z,5.63
2018-07-26T16:08:53.476Z,4.40
2018-07-26T16:11:22.153Z,5.97
2018-07-26T16:13:51.031Z,6.57
2018-07-26T16:16:19.706Z,6.83
2018-07-26T16:18:48.335Z,6.20
2018-07-26T16:21:17.055Z,6.90
2018-07-26T16:23:45.758Z,7.93
2018-07-26T16:26:14.441Z,6.97
2018-07-26T16:28:43.142Z,7.97
2018-07-26T16:31:12.069Z,9.87
2018-07-26T16:33:40.723Z,6.30
2018-07-26T16:36:09.391Z,7.77
2018-07-26T16:38:38.051Z,9.07
2018-07-26T16:41:06.776Z,6.50
2018-07-26T16:43:35.488Z,6.07
2018-07-26T16:46:04.185Z,8.23
2018-07-26T16:48:32.848Z,8.03
2018-07-26T16:51:01.506Z,8.70
2018-07-26T16:53:30.172Z,8.23
2018-07-26T16:55:58.821Z,10.60
2018-07-26T16:58:27.509Z,8.80
2018-07-26T17:00:56.398Z,8.73
2018-07-26T17:03:25.075Z,6.90
2018-07-26T17:05:53.676Z,12.23
2018-07-26T17:08:22.310Z,9.67
2018-07-26T17:10:50.970Z,12.33
2018-07-26T17:13:19.652Z,8.63
2018-07-26T17:15:48.571Z,10.30
2018-07-26T17:18:17.668Z,8.63
2018-07-26T17:20:46.363Z,9.67
2018-07-26T17:23:15.055Z,10.87
2018-07-26T17:25:43.991Z,9.37
2018-07-26T17:28:12.902Z,9.97
2018-07-26T17:30:41.686Z,11.73
2018-07-26T17:33:10.728Z,10.13
2018-07-26T17:35:39.542Z,10.67
2018-07-26T17:38:08.377Z,8.10
2018-07-26T17:40:37.382Z,7.40
2018-07-26T17:43:06.243Z,9.37
2018-07-26T17:45:35.167Z,9.50
2018-07-26T17:48:04.162Z,13.70
2018-07-26T17:50:32.934Z,10.23
2018-07-26T17:53:01.806Z,12.53
2018-07-26T17:55:30.733Z,9.63
2018-07-26T17:57:59.622Z,30.03
2018-07-26T18:00:28.367Z,10.03
2018-07-26T18:02:57.331Z,13.13
2018-07-26T18:05:25.974Z,9.67
2018-07-26T18:07:54.834Z,10.87
2018-07-26T18:10:23.762Z,9.67
2018-07-26T18:12:52.488Z,10.10
2018-07-26T18:15:21.589Z,18.80
2018-07-26T18:17:50.219Z,15.73
2018-07-26T18:20:19.210Z,16.40
2018-07-26T18:22:48.208Z,12.30
2018-07-26T18:25:16.837Z,10.17
2018-07-26T18:27:45.493Z,12.10
2018-07-26T18:30:15.381Z,10.20
2018-07-26T18:32:44.308Z,9.17
2018-07-26T18:35:12.934Z,9.83
2018-07-26T18:37:41.634Z,10.13
2018-07-26T18:40:11.277Z,11.73
2018-07-26T18:42:40.269Z,10.17
2018-07-26T18:45:10.019Z,9.70
2018-07-26T18:47:39.411Z,8.77
2018-07-26T18:50:09.300Z,8.60
2018-07-26T18:52:38.280Z,7.50
2018-07-26T18:55:08.379Z,7.77
2018-07-26T18:57:37.046Z,8.53
2018-07-26T19:00:08.209Z,11.73
2018-07-26T19:02:36.809Z,11.53
2018-07-26T19:05:06.149Z,10.17
2018-07-26T19:07:35.271Z,11.80
2018-07-26T19:10:04.344Z,12.00
2018-07-26T19:12:33.901Z,13.70
2018-07-26T19:15:03.909Z,12.30
2018-07-26T19:17:32.802Z,17.87
2018-07-26T19:20:02.027Z,13.63
2018-07-26T19:22:31.885Z,10.93
2018-07-26T19:25:01.593Z,11.80
2018-07-26T19:27:30.487Z,9.93
2018-07-26T19:29:59.230Z,12.23
2018-07-26T19:32:28.037Z,9.93
2018-07-26T19:34:58.287Z,9.10
2018-07-26T19:37:27.817Z,8.90
2018-07-26T19:39:56.643Z,8.50
2018-07-26T19:42:25.334Z,10.30
2018-07-26T19:44:53.929Z,10.90
2018-07-26T19:47:22.618Z,12.07
2018-07-26T19:49:51.242Z,11.10
2018-07-26T19:52:20.025Z,11.63
2018-07-26T19:54:48.662Z,9.80
2018-07-26T19:57:17.608Z,10.57
2018-07-26T19:59:46.554Z,10.93
2018-07-26T20:02:15.176Z,8.57
2018-07-26T20:04:43.792Z,9.60
2018-07-26T20:07:12.432Z,8.80
2018-07-26T20:09:41.120Z,8.67
2018-07-26T20:12:09.861Z,10.07
2018-07-26T20:14:39.210Z,10.53
2018-07-26T20:17:07.956Z,7.10
2018-07-26T20:19:36.584Z,8.30
2018-07-26T20:22:05.262Z,7.47
2018-07-26T20:24:33.901Z,8.80
2018-07-26T20:27:02.573Z,10.73
2018-07-26T20:29:31.238Z,7.33
2018-07-26T20:32:00.274Z,8.77
2018-07-26T20:34:29.065Z,8.37
2018-07-26T20:36:58.353Z,7.87
2018-07-26T20:39:27.069Z,7.20
2018-07-26T20:41:55.781Z,7.70
2018-07-26T20:44:24.392Z,9.57
2018-07-26T20:46:53.030Z,7.53
2018-07-26T20:49:21.886Z,7.17
2018-07-26T20:51:50.565Z,7.20
2018-07-26T20:54:19.212Z,7.47
2018-07-26T20:56:48.806Z,6.80
2018-07-26T20:59:17.462Z,6.37
2018-07-26T21:01:46.165Z,6.57
2018-07-26T21:04:14.763Z,6.27
2018-07-26T21:06:43.463Z,6.90
2018-07-26T21:09:14.020Z,7.10
2018-07-26T21:11:43.166Z,7.47
2018-07-26T21:14:11.789Z,8.17
2018-07-26T21:16:40.418Z,7.53
2018-07-26T21:19:09.565Z,9.17
2018-07-26T21:21:38.239Z,8.47
2018-07-26T21:24:06.899Z,6.67
2018-07-26T21:26:35.534Z,7.83
2018-07-26T21:29:04.179Z,8.30
2018-07-26T21:31:32.913Z,7.43
2018-07-26T21:34:01.822Z,8.03
2018-07-26T21:36:31.026Z,11.77
2018-07-26T21:38:59.689Z,8.17
2018-07-26T21:41:28.590Z,9.67
2018-07-26T21:43:57.286Z,8.03
2018-07-26T21:46:26.243Z,8.20
2018-07-26T21:48:54.851Z,7.27
2018-07-26T21:51:23.477Z,9.77
2018-07-26T21:53:52.164Z,11.43
2018-07-26T21:56:20.798Z,9.23
2018-07-26T21:58:49.423Z,9.50
2018-07-26T22:01:18.176Z,10.33
2018-07-26T22:03:46.898Z,8.37
2018-07-26T22:06:15.564Z,7.53
2018-07-26T22:08:45.025Z,8.97
2018-07-26T22:11:13.709Z,8.60
2018-07-26T22:13:42.358Z,8.40
2018-07-26T22:16:11.030Z,8.50
2018-07-26T22:18:39.694Z,8.10
2018-07-26T22:21:08.385Z,7.77
2018-07-26T22:23:37.054Z,9.90
2018-07-26T22:26:05.769Z,8.67
2018-07-26T22:28:34.407Z,8.90
2018-07-26T22:31:03.111Z,8.80
2018-07-26T22:33:31.738Z,9.23
2018-07-26T22:36:00.454Z,9.10
2018-07-26T22:38:29.139Z,9.27
2018-07-26T22:40:57.881Z,10.63
2018-07-26T22:43:26.566Z,9.77
2018-07-26T22:45:55.287Z,9.13
2018-07-26T22:48:24.019Z,9.33
2018-07-26T22:50:52.994Z,8.43
2018-07-26T22:53:21.678Z,8.53
2018-07-26T22:55:50.439Z,9.83
2018-07-26T22:58:19.455Z,9.03
2018-07-26T23:00:48.218Z,9.60
2018-07-26T23:03:16.915Z,10.17
2018-07-26T23:05:45.584Z,10.03
2018-07-26T23:08:14.367Z,10.93
2018-07-26T23:10:43.054Z,8.43
2018-07-26T23:13:11.741Z,12.90
2018-07-26T23:15:40.459Z,10.77
2018-07-26T23:18:09.109Z,10.83
2018-07-26T23:20:37.759Z,12.73
2018-07-26T23:23:06.418Z,10.87
2018-07-26T23:25:35.094Z,10.03
2018-07-26T23:28:03.810Z,16.67
2018-07-26T23:30:32.461Z,10.53
2018-07-26T23:33:02.062Z,10.37
2018-07-26T23:35:30.726Z,10.50
2018-07-26T23:37:59.442Z,9.80
2018-07-26T23:40:28.097Z,9.67
2018-07-26T23:42:56.745Z,10.50
2018-07-26T23:45:25.622Z,10.47
2018-07-26T23:47:54.284Z,10.53
2018-07-26T23:50:23.184Z,11.53
2018-07-26T23:52:51.952Z,11.63
2018-07-26T23:55:20.630Z,11.60
2018-07-26T23:57:49.291Z,14.47
